sensor_id;sensor_type;location;lat;lon;timestamp;pressure;altitude;pressure_sealevel;temperature;humidity
45050;BME280;61798;48.048;-1.928;2023-01-28T00:00:15;101976.94;;;1.03;100.00
45050;BME280;61798;48.048;-1.928;2023-01-28T00:03:01;101976.44;;;0.97;100.00
45050;BME280;61798;48.048;-1.928;2023-01-28T00:05:19;102045.41;;;1.49;100.00
45050;BME280;61798;48.048;-1.928;2023-01-28T00:08:04;101961.53;;;1.10;100.00
45050;BME280;61798;48.048;-1.928;2023-01-28T00:10:37;102019.66;;;1.53;100.00
45050;BME280;61798;48.048;-1.928;2023-01-28T00:13:25;101987.84;;;1.26;100.00
45050;BME280;61798;48.048;-1.928;2023-01-28T00:15:42;101924.69;;;0.94;100.00
45050;BME280;61798;48.048;-1.928;2023-01-28T00:18:00;101961.34;;;1.13;100.00
45050;BME280;61798;48.048;-1.928;2023-01-28T00:20:54;102023.91;;;1.41;100.00
45050;BME280;61798;48.048;-1.928;2023-01-28T00:27:53;102020.31;;;1.56;100.00
45050;BME280;61798;48.048;-1.928;2023-01-28T00:30:43;102025.78;;;1.53;100.00
45050;BME280;61798;48.048;-1.928;2023-01-28T00:41:24;102001.66;;;1.45;100.00
45050;BME280;61798;48.048;-1.928;2023-01-28T00:44:10;102032.38;;;1.61;100.00
45050;BME280;61798;48.048;-1.928;2023-01-28T00:51:16;101981.09;;;1.35;100.00
45050;BME280;61798;48.048;-1.928;2023-01-28T00:54:08;101965.00;;;1.25;100.00
45050;BME280;61798;48.048;-1.928;2023-01-28T00:56:45;101971.28;;;1.37;100.00
45050;BME280;61798;48.048;-1.928;2023-01-28T01:00:04;101967.41;;;1.43;100.00
45050;BME280;61798;48.048;-1.928;2023-01-28T01:03:31;101958.66;;;1.28;100.00
45050;BME280;61798;48.048;-1.928;2023-01-28T01:06:20;102023.94;;;1.68;100.00
45050;BME280;61798;48.048;-1.928;2023-01-28T01:08:45;101983.72;;;1.50;100.00
45050;BME280;61798;48.048;-1.928;2023-01-28T01:11:35;102030.44;;;1.77;100.00
45050;BME280;61798;48.048;-1.928;2023-01-28T01:14:21;101975.69;;;1.52;100.00
45050;BME280;61798;48.048;-1.928;2023-01-28T01:16:57;101980.06;;;1.38;100.00
45050;BME280;61798;48.048;-1.928;2023-01-28T01:22:39;102001.22;;;1.66;100.00
45050;BME280;61798;48.048;-1.928;2023-01-28T01:25:30;101987.06;;;1.67;100.00
45050;BME280;61798;48.048;-1.928;2023-01-28T01:28:25;101997.94;;;1.62;100.00
45050;BME280;61798;48.048;-1.928;2023-01-28T01:31:36;101946.50;;;1.25;100.00
45050;BME280;61798;48.048;-1.928;2023-01-28T01:34:48;102013.00;;;1.75;100.00
45050;BME280;61798;48.048;-1.928;2023-01-28T01:45:23;101988.44;;;1.73;100.00
45050;BME280;61798;48.048;-1.928;2023-01-28T01:48:55;101962.16;;;1.56;100.00
45050;BME280;61798;48.048;-1.928;2023-01-28T01:56:26;101929.63;;;1.28;100.00
45050;BME280;61798;48.048;-1.928;2023-01-28T02:10:18;102009.28;;;1.77;100.00
45050;BME280;61798;48.048;-1.928;2023-01-28T02:13:09;101963.16;;;1.41;100.00
45050;BME280;61798;48.048;-1.928;2023-01-28T02:59:35;101953.66;;;0.96;100.00
45050;BME280;61798;48.048;-1.928;2023-01-28T03:04:57;102080.75;;;1.76;100.00
45050;BME280;61798;48.048;-1.928;2023-01-28T03:49:52;102074.19;;;1.54;100.00
45050;BME280;61798;48.048;-1.928;2023-01-28T03:53:11;102022.66;;;1.19;100.00
45050;BME280;61798;48.048;-1.928;2023-01-28T03:59:17;101995.41;;;0.89;100.00
45050;BME280;61798;48.048;-1.928;2023-01-28T04:03:13;102012.00;;;1.05;100.00
45050;BME280;61798;48.048;-1.928;2023-01-28T04:07:13;102079.41;;;1.41;100.00
45050;BME280;61798;48.048;-1.928;2023-01-28T05:33:23;102073.66;;;0.90;100.00
45050;BME280;61798;48.048;-1.928;2023-01-28T05:36:15;102062.78;;;0.80;100.00
45050;BME280;61798;48.048;-1.928;2023-01-28T05:39:05;102031.69;;;0.70;100.00
45050;BME280;61798;48.048;-1.928;2023-01-28T06:02:49;102069.19;;;0.61;100.00
45050;BME280;61798;48.048;-1.928;2023-01-28T06:10:08;102054.13;;;0.63;100.00
45050;BME280;61798;48.048;-1.928;2023-01-28T06:13:46;102109.50;;;0.94;100.00
45050;BME280;61798;48.048;-1.928;2023-01-28T06:17:27;102062.78;;;0.65;100.00
45050;BME280;61798;48.048;-1.928;2023-01-28T06:20:18;102164.69;;;1.28;100.00
45050;BME280;61798;48.048;-1.928;2023-01-28T06:22:52;102101.63;;;0.78;100.00
45050;BME280;61798;48.048;-1.928;2023-01-28T06:25:46;102095.44;;;0.79;100.00
45050;BME280;61798;48.048;-1.928;2023-01-28T06:28:49;102146.31;;;1.26;100.00
45050;BME280;61798;48.048;-1.928;2023-01-28T06:32:21;102104.47;;;1.04;100.00
45050;BME280;61798;48.048;-1.928;2023-01-28T06:39:24;102145.59;;;1.08;100.00
45050;BME280;61798;48.048;-1.928;2023-01-28T06:42:18;102153.38;;;1.11;100.00
45050;BME280;61798;48.048;-1.928;2023-01-28T06:44:43;102159.13;;;1.18;100.00
45050;BME280;61798;48.048;-1.928;2023-01-28T06:47:32;102057.16;;;0.40;100.00
45050;BME280;61798;48.048;-1.928;2023-01-28T06:49:49;102164.75;;;1.12;100.00
45050;BME280;61798;48.048;-1.928;2023-01-28T06:52:28;102126.94;;;0.97;100.00
45050;BME280;61798;48.048;-1.928;2023-01-28T06:54:58;102170.16;;;1.10;100.00
45050;BME280;61798;48.048;-1.928;2023-01-28T06:57:33;102156.09;;;1.10;100.00
45050;BME280;61798;48.048;-1.928;2023-01-28T07:00:11;102093.41;;;0.68;100.00
45050;BME280;61798;48.048;-1.928;2023-01-28T07:03:10;102180.91;;;1.07;100.00
45050;BME280;61798;48.048;-1.928;2023-01-28T07:10:14;102049.53;;;0.36;100.00
45050;BME280;61798;48.048;-1.928;2023-01-28T07:19:18;102114.81;;;0.63;100.00
45050;BME280;61798;48.048;-1.928;2023-01-28T07:21:44;102082.97;;;0.35;100.00
45050;BME280;61798;48.048;-1.928;2023-01-28T07:24:53;102098.19;;;0.61;100.00
45050;BME280;61798;48.048;-1.928;2023-01-28T07:30:43;102095.16;;;0.52;100.00
45050;BME280;61798;48.048;-1.928;2023-01-28T07:33:12;102115.22;;;0.71;100.00
45050;BME280;61798;48.048;-1.928;2023-01-28T07:36:26;102128.50;;;0.84;100.00
45050;BME280;61798;48.048;-1.928;2023-01-28T07:38:51;102175.56;;;0.92;100.00
45050;BME280;61798;48.048;-1.928;2023-01-28T07:41:33;102094.88;;;0.43;100.00
45050;BME280;61798;48.048;-1.928;2023-01-28T07:47:18;102201.56;;;1.15;100.00
45050;BME280;61798;48.048;-1.928;2023-01-28T07:49:54;102165.84;;;0.93;100.00
45050;BME280;61798;48.048;-1.928;2023-01-28T07:52:40;102192.19;;;1.09;100.00
45050;BME280;61798;48.048;-1.928;2023-01-28T07:55:16;102115.88;;;0.75;100.00
45050;BME280;61798;48.048;-1.928;2023-01-28T07:57:58;102110.47;;;0.62;100.00
45050;BME280;61798;48.048;-1.928;2023-01-28T08:00:29;102146.31;;;0.81;100.00
45050;BME280;61798;48.048;-1.928;2023-01-28T08:03:00;102197.09;;;1.15;100.00
45050;BME280;61798;48.048;-1.928;2023-01-28T08:05:45;102189.38;;;1.12;100.00
45050;BME280;61798;48.048;-1.928;2023-01-28T08:08:25;102142.25;;;0.75;100.00
45050;BME280;61798;48.048;-1.928;2023-01-28T08:12:00;102172.72;;;0.81;100.00
45050;BME280;61798;48.048;-1.928;2023-01-28T08:15:32;102110.00;;;0.39;100.00
45050;BME280;61798;48.048;-1.928;2023-01-28T08:28:59;102154.19;;;0.66;100.00
45050;BME280;61798;48.048;-1.928;2023-01-28T08:31:21;102147.41;;;0.62;100.00
45050;BME280;61798;48.048;-1.928;2023-01-28T08:34:05;102159.31;;;0.84;100.00
45050;BME280;61798;48.048;-1.928;2023-01-28T08:44:57;102171.50;;;0.87;100.00
45050;BME280;61798;48.048;-1.928;2023-01-28T08:54:12;102170.13;;;0.96;100.00
45050;BME280;61798;48.048;-1.928;2023-01-28T08:56:42;102217.34;;;1.31;100.00
45050;BME280;61798;48.048;-1.928;2023-01-28T08:59:19;102186.06;;;1.09;100.00
45050;BME280;61798;48.048;-1.928;2023-01-28T09:01:36;102186.91;;;1.09;100.00
45050;BME280;61798;48.048;-1.928;2023-01-28T09:04:04;102168.88;;;0.87;100.00
45050;BME280;61798;48.048;-1.928;2023-01-28T09:10:43;102129.78;;;0.62;100.00
45050;BME280;61798;48.048;-1.928;2023-01-28T09:27:52;102243.97;;;1.72;100.00
45050;BME280;61798;48.048;-1.928;2023-01-28T09:30:12;102238.50;;;1.75;100.00
45050;BME280;61798;48.048;-1.928;2023-01-28T09:33:03;102194.78;;;1.40;100.00
45050;BME280;61798;48.048;-1.928;2023-01-28T09:35:59;102239.16;;;1.64;100.00
45050;BME280;61798;48.048;-1.928;2023-01-28T09:38:09;102210.63;;;1.40;100.00
45050;BME280;61798;48.048;-1.928;2023-01-28T09:47:51;102134.03;;;1.11;100.00
45050;BME280;61798;48.048;-1.928;2023-01-28T09:58:33;102259.44;;;2.08;100.00
45050;BME280;61798;48.048;-1.928;2023-01-28T10:01:46;102165.09;;;1.51;100.00
45050;BME280;61798;48.048;-1.928;2023-01-28T10:13:57;102277.00;;;2.38;100.00
45050;BME280;61798;48.048;-1.928;2023-01-28T10:18:49;102268.28;;;2.36;100.00
45050;BME280;61798;48.048;-1.928;2023-01-28T10:21:15;102272.25;;;2.43;100.00
45050;BME280;61798;48.048;-1.928;2023-01-28T10:23:25;102283.75;;;2.57;100.00
45050;BME280;61798;48.048;-1.928;2023-01-28T10:25:34;102271.22;;;2.46;100.00
45050;BME280;61798;48.048;-1.928;2023-01-28T10:27:41;102290.44;;;2.63;100.00
45050;BME280;61798;48.048;-1.928;2023-01-28T10:29:49;102298.84;;;2.70;100.00
45050;BME280;61798;48.048;-1.928;2023-01-28T10:34:09;102288.34;;;2.68;100.00
45050;BME280;61798;48.048;-1.928;2023-01-28T10:36:16;102284.19;;;2.64;100.00
45050;BME280;61798;48.048;-1.928;2023-01-28T10:38:24;102248.91;;;2.50;100.00
45050;BME280;61798;48.048;-1.928;2023-01-28T10:40:31;102288.41;;;2.81;100.00
45050;BME280;61798;48.048;-1.928;2023-01-28T10:42:37;102243.84;;;2.60;100.00
45050;BME280;61798;48.048;-1.928;2023-01-28T10:44:44;102261.09;;;2.81;100.00
45050;BME280;61798;48.048;-1.928;2023-01-28T10:46:52;102294.34;;;3.13;100.00
45050;BME280;61798;48.048;-1.928;2023-01-28T10:49:07;102285.84;;;3.08;100.00
45050;BME280;61798;48.048;-1.928;2023-01-28T10:51:17;102272.84;;;3.17;100.00
45050;BME280;61798;48.048;-1.928;2023-01-28T10:55:54;102272.53;;;3.22;100.00
45050;BME280;61798;48.048;-1.928;2023-01-28T10:58:03;102263.78;;;3.07;100.00
45050;BME280;61798;48.048;-1.928;2023-01-28T11:02:30;102275.63;;;3.29;100.00
45050;BME280;61798;48.048;-1.928;2023-01-28T11:04:37;102270.31;;;3.29;100.00
45050;BME280;61798;48.048;-1.928;2023-01-28T11:07:00;102269.47;;;3.28;100.00
45050;BME280;61798;48.048;-1.928;2023-01-28T11:09:23;102246.66;;;3.13;100.00
45050;BME280;61798;48.048;-1.928;2023-01-28T11:11:29;102262.13;;;3.19;100.00
45050;BME280;61798;48.048;-1.928;2023-01-28T11:13:48;102267.66;;;3.29;100.00
45050;BME280;61798;48.048;-1.928;2023-01-28T11:15:57;102273.59;;;3.33;100.00
45050;BME280;61798;48.048;-1.928;2023-01-28T11:18:15;102262.97;;;3.06;100.00
45050;BME280;61798;48.048;-1.928;2023-01-28T11:20:23;102257.50;;;3.36;100.00
45050;BME280;61798;48.048;-1.928;2023-01-28T11:22:33;102235.22;;;3.25;100.00
45050;BME280;61798;48.048;-1.928;2023-01-28T11:24:41;102252.09;;;3.51;100.00
45050;BME280;61798;48.048;-1.928;2023-01-28T11:26:51;102260.25;;;3.47;100.00
45050;BME280;61798;48.048;-1.928;2023-01-28T11:28:58;102222.59;;;3.16;100.00
45050;BME280;61798;48.048;-1.928;2023-01-28T11:31:04;102226.50;;;2.97;100.00
45050;BME280;61798;48.048;-1.928;2023-01-28T11:34:04;102254.59;;;3.13;100.00
45050;BME280;61798;48.048;-1.928;2023-01-28T11:36:15;102251.91;;;3.54;100.00
45050;BME280;61798;48.048;-1.928;2023-01-28T11:38:23;102244.88;;;3.40;100.00
45050;BME280;61798;48.048;-1.928;2023-01-28T11:40:30;102238.94;;;3.36;100.00
45050;BME280;61798;48.048;-1.928;2023-01-28T11:42:36;102181.94;;;3.30;100.00
45050;BME280;61798;48.048;-1.928;2023-01-28T11:44:43;102195.59;;;3.37;100.00
45050;BME280;61798;48.048;-1.928;2023-01-28T11:51:45;102227.09;;;3.42;100.00
45050;BME280;61798;48.048;-1.928;2023-01-28T12:01:16;102207.56;;;3.56;100.00
45050;BME280;61798;48.048;-1.928;2023-01-28T12:03:43;102200.88;;;3.63;100.00
45050;BME280;61798;48.048;-1.928;2023-01-28T12:06:21;102206.59;;;3.70;100.00
45050;BME280;61798;48.048;-1.928;2023-01-28T12:09:32;102191.34;;;3.74;100.00
45050;BME280;61798;48.048;-1.928;2023-01-28T12:11:22;102196.25;;;3.91;100.00
45050;BME280;61798;48.048;-1.928;2023-01-28T12:13:54;102192.75;;;3.91;100.00
45050;BME280;61798;48.048;-1.928;2023-01-28T12:16:52;102184.09;;;3.76;100.00
45050;BME280;61798;48.048;-1.928;2023-01-28T12:24:11;102192.81;;;3.65;100.00
45050;BME280;61798;48.048;-1.928;2023-01-28T12:29:07;102189.22;;;3.53;100.00
45050;BME280;61798;48.048;-1.928;2023-01-28T12:39:02;102169.72;;;3.54;100.00
45050;BME280;61798;48.048;-1.928;2023-01-28T12:41:17;102180.31;;;3.54;100.00
45050;BME280;61798;48.048;-1.928;2023-01-28T12:45:59;102162.81;;;3.64;100.00
45050;BME280;61798;48.048;-1.928;2023-01-28T12:50:24;102154.84;;;3.64;100.00
45050;BME280;61798;48.048;-1.928;2023-01-28T12:52:38;102164.59;;;3.77;100.00
45050;BME280;61798;48.048;-1.928;2023-01-28T12:57:02;102158.91;;;3.57;100.00
45050;BME280;61798;48.048;-1.928;2023-01-28T13:01:31;102139.53;;;3.81;100.00
45050;BME280;61798;48.048;-1.928;2023-01-28T13:03:48;102149.44;;;4.04;100.00
45050;BME280;61798;48.048;-1.928;2023-01-28T13:06:29;102152.72;;;4.07;100.00
45050;BME280;61798;48.048;-1.928;2023-01-28T13:08:39;102130.25;;;4.00;100.00
45050;BME280;61798;48.048;-1.928;2023-01-28T13:10:47;102129.72;;;3.95;100.00
45050;BME280;61798;48.048;-1.928;2023-01-28T13:12:56;102119.69;;;3.87;100.00
45050;BME280;61798;48.048;-1.928;2023-01-28T13:15:04;102111.72;;;3.87;100.00
45050;BME280;61798;48.048;-1.928;2023-01-28T13:17:29;102122.69;;;3.82;100.00
45050;BME280;61798;48.048;-1.928;2023-01-28T13:19:40;102140.78;;;3.88;100.00
45050;BME280;61798;48.048;-1.928;2023-01-28T13:21:46;102137.13;;;3.78;100.00
45050;BME280;61798;48.048;-1.928;2023-01-28T13:28:30;102113.44;;;3.75;100.00
45050;BME280;61798;48.048;-1.928;2023-01-28T13:30:47;102111.56;;;3.77;100.00
45050;BME280;61798;48.048;-1.928;2023-01-28T13:32:57;102129.84;;;3.93;100.00
45050;BME280;61798;48.048;-1.928;2023-01-28T13:35:06;102124.03;;;3.88;100.00
45050;BME280;61798;48.048;-1.928;2023-01-28T13:39:34;102115.44;;;3.84;100.00
45050;BME280;61798;48.048;-1.928;2023-01-28T13:43:50;102084.41;;;3.73;100.00
45050;BME280;61798;48.048;-1.928;2023-01-28T13:45:58;102112.13;;;3.94;100.00
45050;BME280;61798;48.048;-1.928;2023-01-28T13:50:23;102095.66;;;3.77;100.00
45050;BME280;61798;48.048;-1.928;2023-01-28T13:52:35;102081.44;;;3.78;100.00
45050;BME280;61798;48.048;-1.928;2023-01-28T13:54:47;102071.78;;;3.77;100.00
45050;BME280;61798;48.048;-1.928;2023-01-28T13:59:30;102101.31;;;3.97;100.00
45050;BME280;61798;48.048;-1.928;2023-01-28T14:09:13;102092.59;;;3.95;100.00
45050;BME280;61798;48.048;-1.928;2023-01-28T14:14:19;102085.00;;;3.90;100.00
45050;BME280;61798;48.048;-1.928;2023-01-28T14:18:59;102094.53;;;3.93;100.00
45050;BME280;61798;48.048;-1.928;2023-01-28T14:21:15;102094.53;;;3.93;100.00
45050;BME280;61798;48.048;-1.928;2023-01-28T14:23:22;102068.50;;;3.73;100.00
45050;BME280;61798;48.048;-1.928;2023-01-28T14:25:56;102095.69;;;3.88;100.00
45050;BME280;61798;48.048;-1.928;2023-01-28T14:28:05;102098.13;;;3.91;100.00
45050;BME280;61798;48.048;-1.928;2023-01-28T14:30:20;102094.00;;;3.87;100.00
45050;BME280;61798;48.048;-1.928;2023-01-28T14:32:30;102074.03;;;3.70;100.00
45050;BME280;61798;48.048;-1.928;2023-01-28T14:34:38;102056.75;;;3.64;100.00
45050;BME280;61798;48.048;-1.928;2023-01-28T14:36:45;102084.56;;;3.83;100.00
45050;BME280;61798;48.048;-1.928;2023-01-28T14:38:54;102079.72;;;3.77;100.00
45050;BME280;61798;48.048;-1.928;2023-01-28T14:41:03;102041.19;;;3.59;100.00
45050;BME280;61798;48.048;-1.928;2023-01-28T14:43:15;102081.94;;;3.83;100.00
45050;BME280;61798;48.048;-1.928;2023-01-28T14:48:49;102106.84;;;3.94;100.00
45050;BME280;61798;48.048;-1.928;2023-01-28T14:51:00;102123.47;;;3.96;100.00
45050;BME280;61798;48.048;-1.928;2023-01-28T14:58:05;102094.78;;;3.76;100.00
45050;BME280;61798;48.048;-1.928;2023-01-28T15:00:26;102125.03;;;3.98;100.00
45050;BME280;61798;48.048;-1.928;2023-01-28T15:02:32;102087.38;;;3.68;100.00
45050;BME280;61798;48.048;-1.928;2023-01-28T15:04:38;102126.59;;;3.89;100.00
45050;BME280;61798;48.048;-1.928;2023-01-28T15:06:44;102095.56;;;3.65;100.00
45050;BME280;61798;48.048;-1.928;2023-01-28T15:08:52;102119.06;;;3.83;100.00
45050;BME280;61798;48.048;-1.928;2023-01-28T15:10:59;102074.38;;;3.52;100.00
45050;BME280;61798;48.048;-1.928;2023-01-28T15:13:10;102076.94;;;3.54;100.00
45050;BME280;61798;48.048;-1.928;2023-01-28T15:15:23;102134.63;;;3.88;100.00
45050;BME280;61798;48.048;-1.928;2023-01-28T15:17:30;102099.63;;;3.58;100.00
45050;BME280;61798;48.048;-1.928;2023-01-28T15:19:36;102137.22;;;3.76;100.00
45050;BME280;61798;48.048;-1.928;2023-01-28T15:21:46;102106.50;;;3.61;100.00
45050;BME280;61798;48.048;-1.928;2023-01-28T15:23:56;102096.44;;;3.53;100.00
45050;BME280;61798;48.048;-1.928;2023-01-28T15:26:17;102140.81;;;3.75;100.00
45050;BME280;61798;48.048;-1.928;2023-01-28T15:28:30;102138.50;;;3.70;100.00
45050;BME280;61798;48.048;-1.928;2023-01-28T15:30:44;102135.56;;;3.62;100.00
45050;BME280;61798;48.048;-1.928;2023-01-28T15:33:03;102158.34;;;3.78;100.00
45050;BME280;61798;48.048;-1.928;2023-01-28T15:35:12;102127.09;;;3.57;100.00
45050;BME280;61798;48.048;-1.928;2023-01-28T15:37:21;102161.19;;;3.75;100.00
45050;BME280;61798;48.048;-1.928;2023-01-28T15:39:28;102156.09;;;3.72;100.00
45050;BME280;61798;48.048;-1.928;2023-01-28T15:41:40;102166.00;;;3.69;100.00
45050;BME280;61798;48.048;-1.928;2023-01-28T15:43:49;102169.50;;;3.70;100.00
45050;BME280;61798;48.048;-1.928;2023-01-28T15:45:57;102165.47;;;3.64;100.00
45050;BME280;61798;48.048;-1.928;2023-01-28T15:48:05;102107.59;;;3.32;100.00
45050;BME280;61798;48.048;-1.928;2023-01-28T15:50:19;102128.81;;;3.45;100.00
45050;BME280;61798;48.048;-1.928;2023-01-28T15:52:35;102139.19;;;3.48;100.00
45050;BME280;61798;48.048;-1.928;2023-01-28T15:54:44;102152.34;;;3.49;100.00
45050;BME280;61798;48.048;-1.928;2023-01-28T15:56:52;102151.88;;;3.56;100.00
45050;BME280;61798;48.048;-1.928;2023-01-28T15:59:28;102158.13;;;3.55;100.00
45050;BME280;61798;48.048;-1.928;2023-01-28T16:01:35;102159.22;;;3.52;100.00
45050;BME280;61798;48.048;-1.928;2023-01-28T16:03:44;102155.94;;;3.48;100.00
45050;BME280;61798;48.048;-1.928;2023-01-28T16:06:00;102170.34;;;3.57;100.00
45050;BME280;61798;48.048;-1.928;2023-01-28T16:08:09;102145.78;;;3.42;100.00
45050;BME280;61798;48.048;-1.928;2023-01-28T16:10:23;102160.38;;;3.48;100.00
45050;BME280;61798;48.048;-1.928;2023-01-28T16:12:30;102129.13;;;3.40;100.00
45050;BME280;61798;48.048;-1.928;2023-01-28T16:14:48;102173.09;;;3.56;100.00
45050;BME280;61798;48.048;-1.928;2023-01-28T16:16:56;102163.13;;;3.46;100.00
45050;BME280;61798;48.048;-1.928;2023-01-28T16:19:06;102165.06;;;3.44;100.00
45050;BME280;61798;48.048;-1.928;2023-01-28T16:21:19;102146.41;;;3.33;100.00
45050;BME280;61798;48.048;-1.928;2023-01-28T16:23:27;102182.34;;;3.50;100.00
45050;BME280;61798;48.048;-1.928;2023-01-28T16:25:34;102184.16;;;3.49;100.00
45050;BME280;61798;48.048;-1.928;2023-01-28T16:27:44;102172.59;;;3.37;100.00
45050;BME280;61798;48.048;-1.928;2023-01-28T16:29:49;102194.13;;;3.46;100.00
45050;BME280;61798;48.048;-1.928;2023-01-28T16:31:56;102162.84;;;3.25;100.00
45050;BME280;61798;48.048;-1.928;2023-01-28T16:34:04;102179.91;;;3.34;100.00
45050;BME280;61798;48.048;-1.928;2023-01-28T16:36:15;102172.59;;;3.24;100.00
45050;BME280;61798;48.048;-1.928;2023-01-28T16:38:21;102186.25;;;3.31;100.00
45050;BME280;61798;48.048;-1.928;2023-01-28T16:40:27;102163.78;;;3.24;100.00
45050;BME280;61798;48.048;-1.928;2023-01-28T16:42:33;102202.47;;;3.40;100.00
45050;BME280;61798;48.048;-1.928;2023-01-28T16:44:39;102164.13;;;3.06;100.00
45050;BME280;61798;48.048;-1.928;2023-01-28T16:46:45;102204.94;;;3.30;100.00
45050;BME280;61798;48.048;-1.928;2023-01-28T16:48:51;102176.28;;;3.09;100.00
45050;BME280;61798;48.048;-1.928;2023-01-28T16:50:57;102209.78;;;3.23;100.00
45050;BME280;61798;48.048;-1.928;2023-01-28T16:53:20;102168.56;;;3.05;100.00
45050;BME280;61798;48.048;-1.928;2023-01-28T16:55:28;102200.78;;;3.12;100.00
45050;BME280;61798;48.048;-1.928;2023-01-28T16:57:35;102184.31;;;3.07;100.00
45050;BME280;61798;48.048;-1.928;2023-01-28T16:59:41;102224.72;;;3.24;100.00
45050;BME280;61798;48.048;-1.928;2023-01-28T17:01:47;102226.44;;;3.25;100.00
45050;BME280;61798;48.048;-1.928;2023-01-28T17:03:53;102185.81;;;2.98;100.00
45050;BME280;61798;48.048;-1.928;2023-01-28T17:06:01;102219.41;;;3.11;100.00
45050;BME280;61798;48.048;-1.928;2023-01-28T17:08:07;102204.88;;;3.03;100.00
45050;BME280;61798;48.048;-1.928;2023-01-28T17:10:14;102219.53;;;3.09;100.00
45050;BME280;61798;48.048;-1.928;2023-01-28T17:12:21;102211.97;;;3.03;100.00
45050;BME280;61798;48.048;-1.928;2023-01-28T17:14:27;102217.59;;;2.98;100.00
45050;BME280;61798;48.048;-1.928;2023-01-28T17:16:33;102218.00;;;2.92;100.00
45050;BME280;61798;48.048;-1.928;2023-01-28T17:18:39;102223.72;;;2.99;100.00
45050;BME280;61798;48.048;-1.928;2023-01-28T17:20:45;102209.53;;;2.87;100.00
45050;BME280;61798;48.048;-1.928;2023-01-28T17:22:51;102200.41;;;2.78;100.00
45050;BME280;61798;48.048;-1.928;2023-01-28T17:24:57;102194.63;;;2.71;100.00
45050;BME280;61798;48.048;-1.928;2023-01-28T17:27:03;102198.47;;;2.80;100.00
45050;BME280;61798;48.048;-1.928;2023-01-28T17:29:10;102212.56;;;2.80;100.00
45050;BME280;61798;48.048;-1.928;2023-01-28T17:31:16;102195.31;;;2.74;100.00
45050;BME280;61798;48.048;-1.928;2023-01-28T17:33:22;102228.81;;;2.89;100.00
45050;BME280;61798;48.048;-1.928;2023-01-28T17:35:28;102224.66;;;2.84;100.00
45050;BME280;61798;48.048;-1.928;2023-01-28T17:37:35;102239.94;;;2.94;100.00
45050;BME280;61798;48.048;-1.928;2023-01-28T17:39:42;102246.75;;;2.98;100.00
45050;BME280;61798;48.048;-1.928;2023-01-28T17:41:48;102258.28;;;2.97;100.00
45050;BME280;61798;48.048;-1.928;2023-01-28T17:43:56;102186.88;;;2.55;100.00
45050;BME280;61798;48.048;-1.928;2023-01-28T17:46:12;102225.16;;;2.77;100.00
45050;BME280;61798;48.048;-1.928;2023-01-28T17:48:18;102209.06;;;2.67;100.00
45050;BME280;61798;48.048;-1.928;2023-01-28T17:50:24;102238.97;;;2.82;100.00
45050;BME280;61798;48.048;-1.928;2023-01-28T17:52:30;102235.47;;;2.81;100.00
45050;BME280;61798;48.048;-1.928;2023-01-28T17:54:36;102242.47;;;2.82;100.00
45050;BME280;61798;48.048;-1.928;2023-01-28T17:56:42;102226.91;;;2.63;100.00
45050;BME280;61798;48.048;-1.928;2023-01-28T17:58:52;102229.88;;;2.58;100.00
45050;BME280;61798;48.048;-1.928;2023-01-28T18:01:07;102235.53;;;2.67;100.00
45050;BME280;61798;48.048;-1.928;2023-01-28T18:03:15;102261.09;;;2.81;100.00
45050;BME280;61798;48.048;-1.928;2023-01-28T18:05:21;102255.03;;;2.79;100.00
45050;BME280;61798;48.048;-1.928;2023-01-28T18:07:27;102268.59;;;2.74;100.00
45050;BME280;61798;48.048;-1.928;2023-01-28T18:09:33;102225.63;;;2.56;100.00
45050;BME280;61798;48.048;-1.928;2023-01-28T18:11:39;102249.59;;;2.67;100.00
45050;BME280;61798;48.048;-1.928;2023-01-28T18:13:45;102224.31;;;2.48;100.00
45050;BME280;61798;48.048;-1.928;2023-01-28T18:15:51;102262.38;;;2.60;100.00
45050;BME280;61798;48.048;-1.928;2023-01-28T18:17:57;102250.84;;;2.61;100.00
45050;BME280;61798;48.048;-1.928;2023-01-28T18:20:04;102272.38;;;2.70;100.00
45050;BME280;61798;48.048;-1.928;2023-01-28T18:22:10;102257.19;;;2.59;100.00
45050;BME280;61798;48.048;-1.928;2023-01-28T18:24:16;102239.13;;;2.51;100.00
45050;BME280;61798;48.048;-1.928;2023-01-28T18:26:22;102202.75;;;2.27;100.00
45050;BME280;61798;48.048;-1.928;2023-01-28T18:28:29;102203.50;;;2.29;100.00
45050;BME280;61798;48.048;-1.928;2023-01-28T18:30:35;102232.03;;;2.38;100.00
45050;BME280;61798;48.048;-1.928;2023-01-28T18:32:41;102227.97;;;2.32;100.00
45050;BME280;61798;48.048;-1.928;2023-01-28T18:34:47;102206.56;;;2.22;100.00
45050;BME280;61798;48.048;-1.928;2023-01-28T18:36:53;102277.31;;;2.61;100.00
45050;BME280;61798;48.048;-1.928;2023-01-28T18:38:59;102275.16;;;2.53;100.00
45050;BME280;61798;48.048;-1.928;2023-01-28T18:41:05;102250.53;;;2.38;100.00
45050;BME280;61798;48.048;-1.928;2023-01-28T18:43:12;102289.63;;;2.62;100.00
45050;BME280;61798;48.048;-1.928;2023-01-28T18:45:18;102276.66;;;2.58;100.00
45050;BME280;61798;48.048;-1.928;2023-01-28T18:47:24;102212.22;;;2.16;100.00
45050;BME280;61798;48.048;-1.928;2023-01-28T18:49:30;102249.13;;;2.32;100.00
45050;BME280;61798;48.048;-1.928;2023-01-28T18:51:36;102248.47;;;2.29;100.00
45050;BME280;61798;48.048;-1.928;2023-01-28T18:53:43;102237.53;;;2.20;100.00
45050;BME280;61798;48.048;-1.928;2023-01-28T18:55:49;102281.59;;;2.49;100.00
45050;BME280;61798;48.048;-1.928;2023-01-28T18:57:55;102272.84;;;2.34;100.00
45050;BME280;61798;48.048;-1.928;2023-01-28T19:00:02;102283.31;;;2.50;100.00
45050;BME280;61798;48.048;-1.928;2023-01-28T19:02:12;102232.22;;;2.20;100.00
45050;BME280;61798;48.048;-1.928;2023-01-28T19:04:18;102262.16;;;2.36;100.00
45050;BME280;61798;48.048;-1.928;2023-01-28T19:06:25;102275.25;;;2.52;100.00
45050;BME280;61798;48.048;-1.928;2023-01-28T19:08:33;102212.22;;;2.16;100.00
45050;BME280;61798;48.048;-1.928;2023-01-28T19:10:39;102267.72;;;2.46;100.00